createdAt,value
2022-12-03T00:02:25.602Z,15.77
2022-12-03T00:04:52.442Z,15.70
2022-12-03T00:07:19.896Z,13.87
2022-12-03T00:09:46.307Z,15.83
2022-12-03T00:12:12.794Z,13.53
2022-12-03T00:14:44.365Z,16.83
2022-12-03T00:17:11.460Z,15.57
2022-12-03T00:19:37.915Z,15.90
2022-12-03T00:22:04.587Z,15.60
2022-12-03T00:24:31.413Z,14.37
2022-12-03T00:26:57.970Z,14.57
2022-12-03T00:29:24.757Z,16.57
2022-12-03T00:31:51.247Z,15.30
2022-12-03T00:34:17.684Z,17.33
2022-12-03T00:36:44.249Z,15.83
2022-12-03T00:39:10.876Z,17.83
2022-12-03T00:41:37.284Z,15.13
2022-12-03T00:44:03.884Z,15.33
2022-12-03T00:46:30.383Z,15.57
2022-12-03T00:48:57.200Z,16.33
2022-12-03T00:51:23.598Z,15.53
2022-12-03T00:53:50.076Z,16.53
2022-12-03T00:56:16.597Z,15.00
2022-12-03T00:58:43.027Z,17.17
2022-12-03T01:01:09.619Z,16.60
2022-12-03T01:03:36.126Z,15.63
2022-12-03T01:06:02.780Z,16.63
2022-12-03T01:08:29.444Z,18.30
2022-12-03T01:10:55.962Z,17.40
2022-12-03T01:13:22.550Z,18.07
2022-12-03T01:15:49.134Z,20.73
2022-12-03T01:18:15.680Z,16.50
2022-12-03T01:20:42.298Z,18.77
2022-12-03T01:23:08.747Z,17.33
2022-12-03T01:25:35.436Z,17.67
2022-12-03T01:28:01.919Z,17.63
2022-12-03T01:30:28.673Z,18.43
2022-12-03T01:32:55.283Z,18.27
2022-12-03T01:35:21.755Z,17.23
2022-12-03T01:37:48.399Z,19.70
2022-12-03T01:40:16.609Z,17.20
2022-12-03T01:42:43.102Z,19.00
2022-12-03T01:45:17.777Z,19.73
2022-12-03T01:47:44.221Z,18.20
2022-12-03T01:50:40.324Z,18.83
2022-12-03T01:53:06.786Z,19.33
2022-12-03T01:55:33.309Z,19.57
2022-12-03T01:58:01.295Z,20.80
2022-12-03T02:00:28.876Z,21.57
2022-12-03T02:03:00.818Z,22.10
2022-12-03T02:05:29.679Z,20.77
2022-12-03T02:07:57.060Z,21.97
2022-12-03T02:10:27.332Z,20.87
2022-12-03T02:13:04.296Z,21.90
2022-12-03T02:15:30.911Z,22.00
2022-12-03T02:17:57.812Z,22.40
2022-12-03T02:20:24.355Z,23.40
2022-12-03T02:23:05.592Z,20.47
2022-12-03T02:25:33.547Z,23.07
2022-12-03T02:28:00.394Z,21.03
2022-12-03T02:30:28.382Z,21.43
2022-12-03T02:32:55.656Z,22.17
2022-12-03T02:35:25.633Z,23.40
2022-12-03T02:38:02.636Z,22.07
2022-12-03T02:40:31.218Z,26.40
2022-12-03T02:43:00.092Z,21.93
2022-12-03T02:45:35.432Z,24.00
2022-12-03T02:48:09.777Z,24.83
2022-12-03T02:50:39.047Z,24.60
2022-12-03T02:53:22.897Z,24.07
2022-12-03T02:55:50.241Z,25.63
2022-12-03T02:58:17.298Z,22.57
2022-12-03T03:00:44.462Z,24.53
2022-12-03T03:03:11.235Z,25.13
2022-12-03T03:05:39.249Z,25.67
2022-12-03T03:08:06.656Z,28.77
2022-12-03T03:10:33.762Z,25.70
2022-12-03T03:13:03.369Z,26.30
2022-12-03T03:15:30.105Z,31.37
2022-12-03T03:17:56.541Z,27.03
2022-12-03T03:20:23.105Z,29.73
2022-12-03T03:22:49.586Z,25.80
2022-12-03T03:25:18.352Z,30.13
2022-12-03T03:27:45.042Z,28.70
2022-12-03T03:30:12.188Z,28.63
2022-12-03T03:32:41.550Z,32.27
2022-12-03T03:35:09.284Z,28.83
2022-12-03T03:37:35.812Z,31.57
2022-12-03T03:40:02.529Z,35.93
2022-12-03T03:42:29.058Z,28.87
2022-12-03T03:44:55.956Z,28.27
2022-12-03T03:47:23.785Z,28.10
2022-12-03T03:49:50.853Z,30.93
2022-12-03T03:52:19.495Z,32.13
2022-12-03T03:54:46.284Z,33.10
2022-12-03T03:57:13.005Z,26.93
2022-12-03T03:59:39.457Z,30.03
2022-12-03T04:02:05.984Z,26.57
2022-12-03T04:04:36.853Z,32.90
2022-12-03T04:07:03.411Z,32.17
2022-12-03T04:09:30.088Z,32.97
2022-12-03T04:12:15.289Z,30.40
2022-12-03T04:14:41.728Z,32.10
2022-12-03T04:17:08.174Z,33.60
2022-12-03T04:19:34.838Z,27.20
2022-12-03T04:22:19.797Z,27.87
2022-12-03T04:24:46.315Z,32.37
2022-12-03T04:27:31.075Z,32.33
2022-12-03T04:29:57.566Z,32.80
2022-12-03T04:32:42.520Z,31.80
2022-12-03T04:35:28.802Z,32.00
2022-12-03T04:37:55.372Z,29.07
2022-12-03T04:40:40.539Z,29.23
2022-12-03T04:43:07.082Z,29.53
2022-12-03T04:45:33.601Z,31.37
2022-12-03T04:48:00.167Z,32.47
2022-12-03T04:50:26.589Z,30.93
2022-12-03T04:52:53.051Z,29.23
2022-12-03T04:55:19.635Z,36.63
2022-12-03T04:57:46.274Z,34.80
2022-12-03T05:00:13.578Z,30.57
2022-12-03T05:02:43.263Z,30.87
2022-12-03T05:05:10.954Z,32.97
2022-12-03T05:07:37.824Z,29.70
2022-12-03T05:10:05.466Z,28.90
2022-12-03T05:12:31.962Z,28.07
2022-12-03T05:14:58.426Z,33.60
2022-12-03T05:17:24.965Z,29.83
2022-12-03T05:20:10.034Z,33.27
2022-12-03T05:22:36.589Z,32.77
2022-12-03T05:25:03.452Z,32.37
2022-12-03T05:27:29.902Z,31.07
2022-12-03T05:29:56.437Z,32.47
2022-12-03T05:32:23.248Z,31.23
2022-12-03T05:34:49.891Z,31.93
2022-12-03T05:37:16.575Z,30.33
2022-12-03T05:39:43.003Z,35.43
2022-12-03T05:42:28.793Z,31.77
2022-12-03T05:44:55.573Z,35.27
2022-12-03T05:47:22.328Z,33.53
2022-12-03T05:49:48.747Z,32.43
2022-12-03T05:52:15.207Z,30.50
2022-12-03T05:54:41.811Z,33.43
2022-12-03T05:57:08.338Z,42.73
2022-12-03T05:59:35.068Z,34.57
2022-12-03T06:02:01.606Z,30.53
2022-12-03T06:04:28.266Z,33.17
2022-12-03T06:06:54.833Z,28.37
2022-12-03T06:09:21.260Z,31.20
2022-12-03T06:11:47.915Z,31.13
2022-12-03T06:14:14.518Z,32.10
2022-12-03T06:16:41.071Z,31.70
2022-12-03T06:19:07.523Z,32.67
2022-12-03T06:21:33.971Z,31.50
2022-12-03T06:24:01.287Z,30.03
2022-12-03T06:26:27.773Z,32.50
2022-12-03T06:28:54.482Z,30.70
2022-12-03T06:31:20.982Z,30.70
2022-12-03T06:33:47.492Z,37.53
2022-12-03T06:36:15.119Z,37.23
2022-12-03T06:38:44.207Z,30.80
2022-12-03T06:41:10.634Z,34.00
2022-12-03T06:43:37.263Z,36.53
2022-12-03T06:46:03.767Z,33.30
2022-12-03T06:48:30.265Z,30.03
2022-12-03T06:50:56.909Z,32.80
2022-12-03T06:53:23.344Z,34.67
2022-12-03T06:55:49.899Z,34.17
2022-12-03T06:58:16.367Z,33.67
2022-12-03T07:00:42.774Z,35.53
2022-12-03T07:03:09.877Z,34.43
2022-12-03T07:05:36.453Z,34.50
2022-12-03T07:08:03.280Z,32.17
2022-12-03T07:10:29.762Z,36.50
2022-12-03T07:12:56.380Z,33.10
2022-12-03T07:15:23.122Z,38.27
2022-12-03T07:17:49.547Z,32.37
2022-12-03T07:20:16.387Z,33.00
2022-12-03T07:22:42.941Z,35.43
2022-12-03T07:25:09.664Z,33.03
2022-12-03T07:27:36.154Z,31.57
2022-12-03T07:30:02.646Z,28.17
2022-12-03T07:32:29.093Z,31.97
2022-12-03T07:34:55.795Z,32.50
2022-12-03T07:37:25.338Z,32.87
2022-12-03T07:39:52.640Z,32.60
2022-12-03T07:42:19.101Z,29.73
2022-12-03T07:44:45.566Z,30.57
2022-12-03T07:47:12.144Z,31.23
2022-12-03T07:49:38.662Z,33.80
2022-12-03T07:52:07.046Z,30.37
2022-12-03T07:54:33.529Z,31.63
2022-12-03T07:57:01.932Z,32.50
2022-12-03T07:59:29.155Z,34.87
2022-12-03T08:01:55.641Z,30.70
2022-12-03T08:04:22.422Z,31.90
2022-12-03T08:06:49.036Z,27.43
2022-12-03T08:09:16.410Z,34.50
2022-12-03T08:11:45.192Z,32.80
2022-12-03T08:14:13.716Z,34.23
2022-12-03T08:16:41.996Z,31.33
2022-12-03T08:19:13.207Z,33.13
2022-12-03T08:21:40.306Z,36.17
2022-12-03T08:24:16.126Z,29.67
2022-12-03T08:26:46.615Z,36.33
2022-12-03T08:29:18.673Z,32.43
2022-12-03T08:31:49.789Z,31.20
2022-12-03T08:34:20.917Z,32.90
2022-12-03T08:36:51.512Z,32.50
2022-12-03T08:39:33.768Z,34.73
2022-12-03T08:42:28.410Z,34.53
2022-12-03T08:44:55.492Z,34.10
2022-12-03T08:47:23.902Z,33.27
2022-12-03T08:49:54.925Z,35.23
2022-12-03T08:52:23.236Z,31.83
2022-12-03T08:54:54.824Z,34.30
2022-12-03T08:57:33.135Z,33.70
2022-12-03T09:00:20.716Z,32.70
2022-12-03T09:02:52.986Z,34.97
2022-12-03T09:05:23.491Z,30.97
2022-12-03T09:07:50.314Z,36.37
2022-12-03T09:10:16.863Z,35.80
2022-12-03T09:12:43.516Z,33.60
2022-12-03T09:15:10.354Z,34.40
2022-12-03T09:17:37.368Z,29.97
2022-12-03T09:20:05.007Z,34.43
2022-12-03T09:22:31.705Z,32.53
2022-12-03T09:24:58.224Z,30.70
2022-12-03T09:27:24.804Z,35.57
2022-12-03T09:29:51.413Z,33.97
2022-12-03T09:32:18.831Z,32.47
2022-12-03T09:34:45.953Z,31.03
2022-12-03T09:37:12.599Z,34.67
2022-12-03T09:39:39.063Z,33.43
2022-12-03T09:42:05.943Z,34.10
2022-12-03T09:44:33.803Z,33.73
2022-12-03T09:47:01.973Z,39.03
2022-12-03T09:49:30.803Z,32.43
2022-12-03T09:51:57.697Z,30.33
2022-12-03T09:54:26.490Z,28.37
2022-12-03T09:56:54.541Z,30.40
2022-12-03T09:59:22.283Z,28.53
2022-12-03T10:01:49.017Z,28.30
2022-12-03T10:04:15.731Z,28.30
2022-12-03T10:06:46.066Z,31.80
2022-12-03T10:09:14.490Z,30.80
2022-12-03T10:11:41.159Z,33.40
2022-12-03T10:14:07.705Z,32.30
2022-12-03T10:16:35.934Z,34.30
2022-12-03T10:19:02.663Z,30.47
2022-12-03T10:21:33.262Z,31.93
2022-12-03T10:24:18.649Z,31.00
2022-12-03T10:26:46.325Z,31.93
2022-12-03T10:29:14.582Z,33.30
2022-12-03T10:31:41.237Z,32.93
2022-12-03T10:34:09.531Z,32.63
2022-12-03T10:36:36.237Z,31.03
2022-12-03T10:39:07.111Z,31.73
2022-12-03T10:41:33.814Z,30.60
2022-12-03T10:44:21.048Z,27.57
2022-12-03T10:47:06.185Z,31.90
2022-12-03T10:49:32.923Z,31.87
2022-12-03T10:51:59.606Z,32.50
2022-12-03T10:54:27.769Z,33.60
2022-12-03T10:56:54.208Z,34.37
2022-12-03T10:59:31.089Z,30.40
2022-12-03T11:01:57.949Z,33.47
2022-12-03T11:04:32.164Z,30.50
2022-12-03T11:06:59.050Z,32.47
2022-12-03T11:09:29.096Z,31.37
2022-12-03T11:11:56.046Z,32.57
2022-12-03T11:15:06.410Z,35.93
2022-12-03T11:17:53.176Z,31.83
2022-12-03T11:20:25.714Z,30.13
2022-12-03T11:22:54.563Z,31.43
2022-12-03T11:25:27.383Z,33.43
2022-12-03T11:28:15.237Z,32.80
2022-12-03T11:30:51.167Z,32.20
2022-12-03T11:33:22.614Z,33.53
2022-12-03T11:36:04.328Z,30.53
2022-12-03T11:38:50.769Z,30.43
2022-12-03T11:41:21.182Z,34.67
2022-12-03T11:43:54.032Z,35.07
2022-12-03T11:46:22.368Z,31.67
2022-12-03T11:48:50.919Z,32.57
2022-12-03T11:51:19.832Z,33.70
2022-12-03T11:53:46.515Z,31.87
2022-12-03T11:56:18.760Z,37.73
2022-12-03T11:58:46.815Z,34.67
2022-12-03T12:01:14.504Z,35.37
2022-12-03T12:03:46.482Z,32.40
2022-12-03T12:06:19.007Z,37.43
2022-12-03T12:08:51.676Z,32.37
2022-12-03T12:11:27.115Z,37.13
2022-12-03T12:14:04.298Z,32.03
2022-12-03T12:16:52.613Z,32.53
2022-12-03T12:19:37.526Z,28.93
2022-12-03T12:22:29.347Z,32.47
2022-12-03T12:24:57.176Z,33.30
2022-12-03T12:27:39.375Z,34.27
2022-12-03T12:30:14.248Z,31.27
2022-12-03T12:33:21.059Z,32.00
2022-12-03T12:35:47.492Z,32.33
2022-12-03T12:38:16.759Z,34.37
2022-12-03T12:40:46.715Z,33.40
2022-12-03T12:43:26.486Z,33.40
2022-12-03T12:46:13.563Z,36.00
2022-12-03T12:48:45.604Z,36.17
2022-12-03T12:51:18.836Z,32.17
2022-12-03T12:53:45.429Z,31.27
2022-12-03T12:56:27.340Z,32.93
2022-12-03T12:58:54.407Z,31.93
2022-12-03T13:01:32.133Z,34.40
2022-12-03T13:03:59.502Z,34.23
2022-12-03T13:06:27.998Z,35.63
2022-12-03T13:08:54.871Z,33.40
2022-12-03T13:11:35.254Z,31.53
2022-12-03T13:14:07.311Z,30.93
2022-12-03T13:16:33.879Z,35.03
2022-12-03T13:19:01.138Z,31.90
2022-12-03T13:21:41.495Z,33.33
2022-12-03T13:24:31.560Z,31.00
2022-12-03T13:26:59.580Z,31.33
2022-12-03T13:29:27.295Z,29.23
2022-12-03T13:32:02.356Z,29.17
2022-12-03T13:34:33.437Z,28.83
2022-12-03T13:37:01.444Z,30.03
2022-12-03T13:39:32.344Z,32.03
2022-12-03T13:42:31.793Z,32.67
2022-12-03T13:44:58.298Z,30.47
2022-12-03T13:47:24.919Z,31.07
2022-12-03T13:49:57.585Z,32.17
2022-12-03T13:52:25.739Z,27.03
2022-12-03T13:54:56.209Z,30.10
2022-12-03T13:57:23.042Z,29.10
2022-12-03T13:59:49.582Z,31.40
2022-12-03T14:02:16.287Z,34.80
2022-12-03T14:04:42.833Z,31.23
2022-12-03T14:07:09.472Z,32.17
2022-12-03T14:09:36.027Z,31.37
2022-12-03T14:12:21.260Z,27.83
2022-12-03T14:14:47.703Z,33.00
2022-12-03T14:17:14.249Z,28.77
2022-12-03T14:19:41.031Z,29.30
2022-12-03T14:22:09.680Z,32.97
2022-12-03T14:24:37.573Z,30.63
2022-12-03T14:27:04.234Z,29.20
2022-12-03T14:29:30.709Z,28.40
2022-12-03T14:31:57.235Z,31.83
2022-12-03T14:34:23.932Z,30.80
2022-12-03T14:36:50.493Z,29.80
2022-12-03T14:39:17.117Z,34.23
2022-12-03T14:42:02.120Z,32.93
2022-12-03T14:44:28.806Z,30.20
2022-12-03T14:46:57.259Z,29.73
2022-12-03T14:49:24.187Z,30.63
2022-12-03T14:51:50.735Z,34.57
2022-12-03T14:54:17.390Z,28.37
2022-12-03T14:56:43.969Z,28.93
2022-12-03T14:59:10.642Z,31.20
2022-12-03T15:01:37.339Z,31.73
2022-12-03T15:04:04.057Z,30.87
2022-12-03T15:06:30.519Z,32.33
2022-12-03T15:08:57.172Z,28.60
2022-12-03T15:11:23.746Z,27.50
2022-12-03T15:13:50.233Z,28.53
2022-12-03T15:16:16.995Z,32.83
2022-12-03T15:18:43.703Z,31.10
2022-12-03T15:21:10.322Z,28.07
2022-12-03T15:23:36.819Z,25.83
2022-12-03T15:26:03.725Z,28.87
2022-12-03T15:28:30.276Z,26.40
2022-12-03T15:30:56.825Z,27.23
2022-12-03T15:33:23.562Z,31.17
2022-12-03T15:35:50.104Z,29.73
2022-12-03T15:38:16.636Z,30.10
2022-12-03T15:40:43.510Z,30.13
2022-12-03T15:43:10.238Z,29.43
2022-12-03T15:45:37.233Z,30.73
2022-12-03T15:48:04.371Z,29.73
2022-12-03T15:50:34.503Z,26.43
2022-12-03T15:53:03.501Z,28.77
2022-12-03T15:55:30.143Z,29.03
2022-12-03T15:57:56.686Z,27.33
2022-12-03T16:00:53.677Z,28.47
2022-12-03T16:03:20.245Z,27.83
2022-12-03T16:05:47.247Z,26.70
2022-12-03T16:08:13.797Z,26.33
2022-12-03T16:10:40.283Z,24.90
2022-12-03T16:13:07.104Z,25.13
2022-12-03T16:15:35.148Z,25.83
2022-12-03T16:18:02.165Z,26.13
2022-12-03T16:20:28.816Z,23.30
2022-12-03T16:22:55.507Z,26.27
2022-12-03T16:25:22.037Z,25.47
2022-12-03T16:27:48.674Z,25.03
2022-12-03T16:30:15.562Z,29.27
2022-12-03T16:32:42.259Z,25.33
2022-12-03T16:35:09.125Z,33.10
2022-12-03T16:37:35.731Z,24.50
2022-12-03T16:40:02.876Z,23.17
2022-12-03T16:42:29.626Z,22.70
2022-12-03T16:45:08.214Z,26.47
2022-12-03T16:47:35.303Z,25.57
2022-12-03T16:50:03.351Z,22.30
2022-12-03T16:52:30.056Z,25.63
2022-12-03T16:54:56.782Z,20.60
2022-12-03T16:57:23.403Z,25.60
2022-12-03T16:59:50.209Z,23.33
2022-12-03T17:02:17.195Z,23.80
2022-12-03T17:04:43.749Z,24.07
2022-12-03T17:07:10.224Z,24.60
2022-12-03T17:09:36.797Z,24.83
2022-12-03T17:12:03.718Z,24.37
2022-12-03T17:14:33.458Z,20.83
2022-12-03T17:17:00.328Z,22.47
2022-12-03T17:19:27.571Z,25.50
2022-12-03T17:21:54.252Z,22.80
2022-12-03T17:24:21.643Z,26.27
2022-12-03T17:26:48.630Z,25.23
2022-12-03T17:29:15.201Z,23.63
2022-12-03T17:31:42.725Z,27.97
2022-12-03T17:34:10.003Z,24.03
2022-12-03T17:36:36.800Z,27.50
2022-12-03T17:39:03.539Z,26.00
2022-12-03T17:41:30.159Z,25.67
2022-12-03T17:43:56.850Z,26.37
2022-12-03T17:46:23.475Z,24.57
2022-12-03T17:48:50.056Z,24.20
2022-12-03T17:51:16.822Z,25.90
2022-12-03T17:53:43.471Z,27.10
2022-12-03T17:56:10.093Z,28.40
2022-12-03T17:58:36.649Z,27.23
2022-12-03T18:01:03.817Z,27.30
2022-12-03T18:03:30.889Z,26.37
2022-12-03T18:05:57.554Z,27.23
2022-12-03T18:08:24.264Z,26.30
2022-12-03T18:10:51.075Z,26.07
2022-12-03T18:13:17.730Z,26.67
2022-12-03T18:15:44.313Z,25.87
2022-12-03T18:18:11.974Z,27.23
2022-12-03T18:20:38.871Z,27.73
2022-12-03T18:23:05.472Z,27.27
2022-12-03T18:25:32.346Z,28.60
2022-12-03T18:28:01.775Z,27.90
2022-12-03T18:30:28.240Z,26.40
2022-12-03T18:32:55.350Z,30.80
2022-12-03T18:35:22.357Z,27.17
2022-12-03T18:37:51.031Z,28.30
2022-12-03T18:40:21.693Z,28.60
2022-12-03T18:42:48.356Z,30.87
2022-12-03T18:45:15.410Z,28.70
2022-12-03T18:47:42.644Z,26.17
2022-12-03T18:50:10.269Z,29.67
2022-12-03T18:52:36.908Z,29.57
2022-12-03T18:55:04.388Z,30.87
2022-12-03T18:57:30.971Z,31.53
2022-12-03T18:59:57.772Z,32.17
2022-12-03T19:05:11.453Z,28.97
2022-12-03T19:07:38.394Z,32.60
2022-12-03T19:10:05.703Z,31.80
2022-12-03T19:12:32.743Z,33.47
2022-12-03T19:14:59.321Z,32.53
2022-12-03T19:17:27.216Z,29.83
2022-12-03T19:19:54.713Z,31.33
2022-12-03T19:22:21.587Z,31.23
2022-12-03T19:24:48.181Z,30.97
2022-12-03T19:27:14.935Z,29.70
2022-12-03T19:29:41.605Z,33.03
2022-12-03T19:32:09.123Z,31.23
2022-12-03T19:34:36.145Z,30.83
2022-12-03T19:37:02.769Z,33.00
2022-12-03T19:39:29.656Z,31.37
2022-12-03T19:41:56.206Z,32.67
2022-12-03T19:44:22.726Z,34.70
2022-12-03T19:46:50.031Z,33.23
2022-12-03T19:49:18.715Z,39.83
2022-12-03T19:51:45.441Z,38.03
2022-12-03T19:54:12.491Z,36.43
2022-12-03T19:56:39.710Z,37.93
2022-12-03T19:59:07.862Z,33.13
2022-12-03T20:01:36.571Z,34.23
2022-12-03T20:04:04.102Z,31.23
2022-12-03T20:06:32.738Z,36.70
2022-12-03T20:09:01.212Z,33.77
2022-12-03T20:11:30.255Z,33.57
2022-12-03T20:13:58.929Z,35.03
2022-12-03T20:16:26.740Z,39.53
2022-12-03T20:18:57.792Z,34.83
2022-12-03T20:21:24.890Z,36.50
2022-12-03T20:23:51.534Z,37.10
2022-12-03T20:26:19.471Z,37.87
2022-12-03T20:28:48.005Z,37.10
2022-12-03T20:31:17.630Z,36.27
2022-12-03T20:33:47.308Z,34.50
2022-12-03T20:36:15.624Z,39.13
2022-12-03T20:38:42.942Z,35.30
2022-12-03T20:41:12.846Z,37.23
2022-12-03T20:43:39.443Z,36.07
2022-12-03T20:46:14.526Z,33.83
2022-12-03T20:48:41.703Z,37.83
2022-12-03T20:51:13.319Z,37.30
2022-12-03T20:53:40.349Z,39.43
2022-12-03T20:56:08.032Z,40.40
2022-12-03T20:58:34.886Z,35.97
2022-12-03T21:01:15.917Z,36.30
2022-12-03T21:03:43.900Z,36.23
2022-12-03T21:06:11.208Z,39.80
2022-12-03T21:08:41.810Z,37.47
2022-12-03T21:11:10.953Z,35.10
2022-12-03T21:13:41.276Z,39.70
2022-12-03T21:16:10.527Z,37.37
2022-12-03T21:18:37.519Z,38.57
2022-12-03T21:21:04.611Z,35.03
2022-12-03T21:23:32.204Z,34.33
2022-12-03T21:26:10.390Z,34.20
2022-12-03T21:28:38.780Z,38.47
2022-12-03T21:31:08.227Z,36.57
2022-12-03T21:33:36.103Z,32.77
2022-12-03T21:36:03.344Z,35.87
2022-12-03T21:38:30.256Z,36.20
2022-12-03T21:40:57.953Z,34.40
2022-12-03T21:43:25.245Z,33.33
2022-12-03T21:45:52.500Z,38.60
2022-12-03T21:48:20.237Z,38.07
2022-12-03T21:50:47.228Z,38.60
2022-12-03T21:53:13.967Z,37.73
2022-12-03T21:55:41.246Z,35.27
2022-12-03T21:58:09.077Z,35.80
2022-12-03T22:00:36.049Z,39.33
2022-12-03T22:03:02.685Z,37.23
2022-12-03T22:05:29.504Z,37.63
2022-12-03T22:07:56.068Z,36.73
2022-12-03T22:10:22.615Z,35.60
2022-12-03T22:12:49.273Z,36.20
2022-12-03T22:15:19.148Z,32.97
2022-12-03T22:17:47.807Z,35.00
2022-12-03T22:20:14.484Z,35.40
2022-12-03T22:22:41.101Z,34.67
2022-12-03T22:25:08.050Z,37.43
2022-12-03T22:27:34.673Z,39.90
2022-12-03T22:30:01.189Z,38.53
2022-12-03T22:32:27.898Z,39.17
2022-12-03T22:34:54.858Z,38.37
2022-12-03T22:37:21.427Z,37.47
2022-12-03T22:39:47.967Z,35.70
2022-12-03T22:42:14.513Z,37.07
2022-12-03T22:44:41.057Z,39.60
2022-12-03T22:47:08.013Z,41.87
2022-12-03T22:49:34.546Z,37.93
2022-12-03T22:52:01.054Z,40.27
2022-12-03T22:54:27.745Z,38.17
2022-12-03T22:56:54.378Z,37.77
2022-12-03T22:59:20.959Z,38.43
2022-12-03T23:01:47.729Z,40.10
2022-12-03T23:04:14.540Z,42.70
2022-12-03T23:06:41.440Z,42.07
2022-12-03T23:09:08.233Z,40.13
2022-12-03T23:11:35.540Z,41.30
2022-12-03T23:14:02.511Z,42.23
2022-12-03T23:16:31.421Z,38.70
2022-12-03T23:19:01.651Z,45.23
2022-12-03T23:21:30.962Z,39.87
2022-12-03T23:24:02.044Z,38.10
2022-12-03T23:26:29.213Z,35.70
2022-12-03T23:28:56.079Z,38.87
2022-12-03T23:31:30.341Z,36.40
2022-12-03T23:33:57.607Z,35.97
2022-12-03T23:36:25.818Z,42.50
2022-12-03T23:38:53.122Z,37.63
2022-12-03T23:41:21.061Z,39.27
2022-12-03T23:43:47.958Z,37.27
2022-12-03T23:46:23.163Z,39.17
2022-12-03T23:48:50.916Z,34.63
2022-12-03T23:51:23.281Z,36.30
2022-12-03T23:53:51.107Z,38.87
2022-12-03T23:56:19.873Z,34.97
2022-12-03T23:58:46.747Z,35.63
